TimeCST,TemperatureF,Dew PointF,Humidity,Sea Level PressureIn,VisibilityMPH,Wind Direction,Wind SpeedMPH,Gust SpeedMPH,PrecipitationIn,Events,Conditions,WindDirDegrees,DateUTC
12:15 AM,6.8,-0.4,72,30.00,10.0,NNW,12.7,-,N/A,,Partly Cloudy,330,2014-01-31 06:15:00
12:35 AM,6.8,-0.4,72,30.01,10.0,NNW,10.4,-,N/A,,Scattered Clouds,330,2014-01-31 06:35:00
12:55 AM,6.8,-0.4,72,30.01,10.0,NW,12.7,-,N/A,,Overcast,320,2014-01-31 06:55:00
1:15 AM,6.8,-2.2,67,30.03,10.0,NW,8.1,-,N/A,,Overcast,310,2014-01-31 07:15:00
1:35 AM,5.0,-2.2,72,30.03,10.0,NW,9.2,-,N/A,,Mostly Cloudy,320,2014-01-31 07:35:00
1:55 AM,5.0,-2.2,72,30.04,10.0,NW,9.2,-,N/A,,Partly Cloudy,310,2014-01-31 07:55:00
2:15 AM,5.0,-4.0,66,30.04,10.0,NW,8.1,-,N/A,,Clear,310,2014-01-31 08:15:00
2:35 AM,5.0,-4.0,66,30.05,10.0,West,6.9,-,N/A,,Clear,280,2014-01-31 08:35:00
2:55 AM,3.2,-4.0,72,30.06,10.0,West,10.4,-,N/A,,Clear,260,2014-01-31 08:55:00
3:15 AM,3.2,-4.0,72,30.07,10.0,WNW,10.4,-,N/A,,Clear,290,2014-01-31 09:15:00
3:35 AM,3.2,-5.8,66,30.06,10.0,WNW,10.4,-,N/A,,Clear,290,2014-01-31 09:35:00
3:55 AM,3.2,-5.8,66,30.07,10.0,WNW,9.2,-,N/A,,Clear,290,2014-01-31 09:55:00
4:15 AM,3.2,-5.8,66,30.08,10.0,WNW,9.2,-,N/A,,Clear,290,2014-01-31 10:15:00
4:35 AM,3.2,-5.8,66,30.09,10.0,WNW,8.1,-,N/A,,Clear,300,2014-01-31 10:35:00
4:55 AM,3.2,-5.8,66,30.09,10.0,NW,9.2,-,N/A,,Clear,310,2014-01-31 10:55:00
5:15 AM,3.2,-5.8,66,30.11,10.0,WNW,11.5,-,N/A,,Clear,290,2014-01-31 11:15:00
5:35 AM,3.2,-5.8,66,30.11,10.0,WNW,9.2,-,N/A,,Mostly Cloudy,300,2014-01-31 11:35:00
5:55 AM,1.4,-7.6,66,30.12,10.0,WNW,10.4,-,N/A,,Partly Cloudy,300,2014-01-31 11:55:00
6:15 AM,1.4,-7.6,66,30.12,10.0,NW,8.1,-,N/A,,Clear,310,2014-01-31 12:15:00
6:35 AM,1.4,-7.6,66,30.12,10.0,NW,8.1,-,N/A,,Clear,320,2014-01-31 12:35:00
6:55 AM,1.4,-7.6,66,30.12,10.0,NW,9.2,-,N/A,,Clear,320,2014-01-31 12:55:00
7:15 AM,1.4,-7.6,66,30.12,10.0,NW,6.9,-,N/A,,Clear,320,2014-01-31 13:15:00
7:35 AM,1.4,-7.6,66,30.13,10.0,NW,9.2,-,N/A,,Clear,320,2014-01-31 13:35:00
7:55 AM,1.4,-7.6,66,30.14,10.0,NW,6.9,-,N/A,,Clear,320,2014-01-31 13:55:00
8:15 AM,1.4,-7.6,66,30.15,10.0,NW,6.9,-,N/A,,Clear,310,2014-01-31 14:15:00
8:35 AM,1.4,-9.4,61,30.14,10.0,NNW,8.1,-,N/A,,Clear,340,2014-01-31 14:35:00
8:55 AM,1.4,-9.4,61,30.15,10.0,NNW,9.2,-,N/A,,Clear,340,2014-01-31 14:55:00
9:15 AM,1.4,-9.4,61,30.16,10.0,NNW,8.1,-,N/A,,Clear,330,2014-01-31 15:15:00
9:35 AM,3.2,-9.4,56,30.15,10.0,NNW,9.2,-,N/A,,Clear,330,2014-01-31 15:35:00
9:55 AM,3.2,-9.4,56,30.17,10.0,NNW,9.2,-,N/A,,Clear,330,2014-01-31 15:55:00
10:15 AM,3.2,-9.4,56,-9999,10.0,North,-9999.0,-,N/A,,Scattered Clouds,0,2014-01-31 16:15:00
10:35 AM,3.2,-7.6,61,30.18,10.0,NNW,6.9,-,N/A,,Partly Cloudy,330,2014-01-31 16:35:00
10:55 AM,5.0,-7.6,56,30.18,10.0,North,5.8,-,N/A,,Clear,350,2014-01-31 16:55:00
11:15 AM,5.0,-7.6,56,30.18,10.0,North,5.8,-,N/A,,Clear,350,2014-01-31 17:15:00
11:35 AM,5.0,-7.6,56,30.18,10.0,NNW,6.9,-,N/A,,Clear,340,2014-01-31 17:35:00
11:55 AM,6.8,-5.8,56,30.19,10.0,NNW,3.5,-,N/A,,Clear,330,2014-01-31 17:55:00
12:15 PM,5.0,-4.0,66,30.18,10.0,West,6.9,-,N/A,,Clear,280,2014-01-31 18:15:00
12:35 PM,6.8,-4.0,61,30.17,10.0,West,6.9,-,N/A,,Clear,280,2014-01-31 18:35:00
12:55 PM,6.8,-4.0,61,30.15,10.0,West,6.9,-,N/A,,Clear,270,2014-01-31 18:55:00
1:15 PM,6.8,-5.8,56,30.15,10.0,NNW,4.6,-,N/A,,Clear,330,2014-01-31 19:15:00
1:35 PM,6.8,-4.0,61,30.14,10.0,North,5.8,-,N/A,,Clear,350,2014-01-31 19:35:00
1:55 PM,6.8,-4.0,61,30.12,10.0,NNW,5.8,-,N/A,,Partly Cloudy,340,2014-01-31 19:55:00
2:15 PM,8.6,-4.0,57,30.13,10.0,NNW,4.6,-,N/A,,Mostly Cloudy,340,2014-01-31 20:15:00
2:35 PM,8.6,-4.0,57,30.13,10.0,North,5.8,-,N/A,,Overcast,350,2014-01-31 20:35:00
2:55 PM,8.6,-4.0,57,30.13,10.0,North,4.6,-,N/A,,Mostly Cloudy,350,2014-01-31 20:55:00
3:15 PM,8.6,-4.0,57,30.12,10.0,Calm,Calm,-,N/A,,Clear,0,2014-01-31 21:15:00
3:35 PM,8.6,-4.0,57,30.11,10.0,NNE,4.6,-,N/A,,Scattered Clouds,30,2014-01-31 21:35:00
3:55 PM,8.6,-4.0,57,30.12,10.0,NNE,4.6,-,N/A,,Scattered Clouds,30,2014-01-31 21:55:00
4:15 PM,8.6,-4.0,57,30.11,10.0,North,6.9,-,N/A,,Clear,350,2014-01-31 22:15:00
4:35 PM,8.6,-4.0,57,30.11,10.0,North,3.5,-,N/A,,Clear,360,2014-01-31 22:35:00
4:55 PM,8.6,-4.0,57,30.11,-9999.0,Calm,Calm,-,N/A,,Clear,0,2014-01-31 22:55:00
5:15 PM,6.8,-4.0,61,30.11,10.0,Calm,Calm,-,N/A,,Clear,0,2014-01-31 23:15:00
5:35 PM,6.8,-2.2,67,30.11,10.0,Calm,Calm,-,N/A,,Scattered Clouds,0,2014-01-31 23:35:00
5:55 PM,6.8,-2.2,67,30.10,10.0,Calm,Calm,-,N/A,,Overcast,0,2014-01-31 23:55:00
6:15 PM,6.8,-4.0,61,30.09,10.0,Calm,Calm,-,N/A,,Mostly Cloudy,0,2014-02-01 00:15:00
6:35 PM,6.8,-2.2,67,30.09,9.0,Calm,Calm,-,N/A,,Overcast,0,2014-02-01 00:35:00
6:55 PM,6.8,-2.2,67,30.09,7.0,North,3.5,-,N/A,,Overcast,10,2014-02-01 00:55:00
7:15 PM,8.6,-2.2,62,30.09,10.0,NNE,3.5,-,N/A,,Overcast,30,2014-02-01 01:15:00
7:35 PM,8.6,-2.2,62,30.09,10.0,Calm,Calm,-,N/A,,Overcast,0,2014-02-01 01:35:00
7:55 PM,8.6,-2.2,62,30.08,10.0,NE,4.6,-,N/A,,Overcast,50,2014-02-01 01:55:00
8:15 PM,8.6,-2.2,62,30.09,10.0,ENE,3.5,-,N/A,,Overcast,60,2014-02-01 02:15:00
8:35 PM,8.6,-2.2,62,30.08,10.0,ENE,3.5,-,N/A,,Overcast,60,2014-02-01 02:35:00
8:55 PM,8.6,-2.2,62,30.09,10.0,Calm,Calm,-,N/A,,Overcast,0,2014-02-01 02:55:00
9:15 PM,10.4,-0.4,62,30.08,10.0,SSE,4.6,-,N/A,,Overcast,160,2014-02-01 03:15:00
9:35 PM,8.6,-0.4,67,30.06,10.0,SE,3.5,-,N/A,,Mostly Cloudy,140,2014-02-01 03:35:00
9:55 PM,8.6,-2.2,62,30.07,10.0,Calm,Calm,-,N/A,,Partly Cloudy,0,2014-02-01 03:55:00
10:15 PM,6.8,-0.4,72,30.07,10.0,Calm,Calm,-,N/A,,Partly Cloudy,0,2014-02-01 04:15:00
10:35 PM,6.8,-0.4,72,30.06,10.0,Calm,Calm,-,N/A,,Mostly Cloudy,0,2014-02-01 04:35:00
10:55 PM,8.6,-0.4,67,30.07,10.0,Calm,Calm,-,N/A,,Overcast,0,2014-02-01 04:55:00
11:15 PM,8.6,-0.4,67,30.06,10.0,Calm,Calm,-,N/A,,Overcast,0,2014-02-01 05:15:00
11:35 PM,8.6,-0.4,67,30.05,10.0,Calm,Calm,-,N/A,,Overcast,0,2014-02-01 05:35:00
11:55 PM,8.6,-0.4,67,30.05,10.0,Calm,Calm,-,N/A,,Overcast,0,2014-02-01 05:55:00